Current Ellington METAR:

KEFD 152050Z 11011KT 10SM SCT040 26/18 A3007


Current Ellington TAF:

TAF KEFD 152000Z 1520/1702 12012G18KT 9999 SCT040 QNH3002INS BECMG 1603/1604 12012KT 9999 BKN026 QNH3005INS BECMG 1614/1615 14020G25KT 9999 BKN030 QNH3001INS BECMG 1617/1618 13009KT 9000 -SHRA BKN026 QNH3003INS TEMPO 1619/1622 21020G30KT 9000 -TSRA BKN018CB OVC025 TX29/1521Z TN22/1609Z

The location could not be found.

Current Aircraft on Radar: